Terminal Aerodrome Forecast
Issued by NWS Houston/Galveston, TX

Home | Current Version | Previous Version | Text Only | Print | Product List | Glossary On
Versions: 1 2 3 4 5 6 7 8 9 10 11 12 13 14 15 16 17 18 19 20 21 22 23 24 25
000
FTUS44 KHGX 251901 AAA
TAFCLL
TAF AMD
KCLL 251901Z 2519/2618 16014KT P6SM FEW060
     FM252100 16014KT P6SM SCT045
     FM260500 17009KT P6SM SCT020
     FM260900 16006KT P6SM SCT015
      TEMPO 2611/2613 15004KT 4SM BR BKN015
     FM261500 18008KT P6SM SCT025=

USA.gov is the U.S. government's official web portal to all federal, state and local government web resources and services.